Time;durP1;ratioP1;P1;durP2;ratioP2;P2;SDS_P1;SDS_P2;PMS_P1;PMS_P2;Temp;Humidity;BMP_temperature;BMP_pressure;BME280_temperature;BME280_humidity;BME280_pressure;Samples;Min_cycle;Max_cycle;Signal;HPM_P1;HPM_P2
2023/10/11 00:00:44;;;;;;;37.55;33.85;;;15.40;86.80;;;;;;5133567;28;20180;-92
2023/10/11 00:03:28;;;;;;;36.35;32.45;;;15.40;86.80;;;;;;5131153;28;20203;-93
2023/10/11 00:05:55;;;;;;;33.60;30.05;;;15.30;87.20;;;;;;5131084;28;20196;-92
2023/10/11 00:08:25;;;;;;;24.05;21.65;;;15.30;87.20;;;;;;5129825;28;20207;-92
2023/10/11 00:10:56;;;;;;;25.63;23.08;;;15.40;86.80;;;;;;5132079;28;20150;-92
2023/10/11 00:13:24;;;;;;;24.58;21.95;;;15.40;86.70;;;;;;5131528;28;20170;-92
2023/10/11 00:15:51;;;;;;;24.30;21.67;;;15.40;86.60;;;;;;5131942;28;20197;-92
2023/10/11 00:18:26;;;;;;;22.73;20.40;;;15.40;86.70;;;;;;5132823;28;20202;-92
2023/10/11 00:20:52;;;;;;;24.08;21.50;;;15.50;86.50;;;;;;5130826;28;20165;-93
2023/10/11 00:23:22;;;;;;;24.60;22.17;;;15.60;86.00;;;;;;5130823;28;20181;-92
2023/10/11 00:25:52;;;;;;;24.65;22.05;;;15.50;86.00;;;;;;5132084;28;20190;-92
2023/10/11 00:28:23;;;;;;;23.85;20.83;;;15.50;86.10;;;;;;5131177;28;20177;-93
2023/10/11 00:30:52;;;;;;;23.15;20.92;;;15.50;86.20;;;;;;5127151;28;20170;-92
2023/10/11 00:33:18;;;;;;;23.60;21.40;;;15.50;86.20;;;;;;5128459;28;20185;-93
2023/10/11 00:35:48;;;;;;;24.20;21.85;;;15.60;85.70;;;;;;5131968;28;20189;-92
2023/10/11 00:38:18;;;;;;;23.80;21.25;;;15.60;85.70;;;;;;5132772;28;20288;-91
2023/10/11 00:41:00;;;;;;;23.50;21.40;;;15.50;85.80;;;;;;5132053;28;20180;-92
2023/10/11 00:43:41;;;;;;;24.35;21.98;;;15.60;85.60;;;;;;5133619;28;20185;-92
2023/10/11 00:46:13;;;;;;;24.35;20.67;;;15.60;85.60;;;;;;5132580;28;20194;-92
2023/10/11 00:48:54;;;;;;;24.70;21.35;;;15.60;85.60;;;;;;5134251;28;20143;-93
2023/10/11 00:51:29;;;;;;;23.00;20.73;;;15.50;85.50;;;;;;5131495;28;20198;-92
2023/10/11 00:53:56;;;;;;;27.38;22.33;;;15.60;85.30;;;;;;5130342;28;20162;-93
2023/10/11 00:56:22;;;;;;;23.55;21.35;;;15.60;85.10;;;;;;5132803;28;20219;-93
2023/10/11 00:58:52;;;;;;;24.30;21.80;;;15.60;85.30;;;;;;5129661;28;20202;-92
2023/10/11 01:01:18;;;;;;;24.90;22.33;;;15.50;85.40;;;;;;5128309;28;20174;-92
2023/10/11 01:03:44;;;;;;;24.40;22.17;;;15.70;84.50;;;;;;5128940;28;20656;-93
2023/10/11 01:06:10;;;;;;;25.73;23.13;;;15.70;84.70;;;;;;5127996;28;20190;-93
2023/10/11 01:08:40;;;;;;;23.23;21.17;;;15.60;84.70;;;;;;5128382;28;20265;-92
2023/10/11 01:11:08;;;;;;;25.60;22.95;;;15.60;84.70;;;;;;5126360;28;20177;-92
2023/10/11 01:13:33;;;;;;;25.02;22.38;;;15.80;84.10;;;;;;5128928;28;20226;-91
2023/10/11 01:15:59;;;;;;;24.23;22.13;;;15.70;84.40;;;;;;5129317;28;20198;-92
2023/10/11 01:18:27;;;;;;;24.00;21.70;;;15.80;84.30;;;;;;5131345;28;20284;-93
2023/10/11 01:20:52;;;;;;;24.35;21.88;;;15.70;84.60;;;;;;5130281;28;20613;-92
2023/10/11 01:23:18;;;;;;;23.63;21.45;;;15.70;84.50;;;;;;5128735;28;20178;-92
2023/10/11 01:25:43;;;;;;;23.85;21.45;;;15.80;84.40;;;;;;5128835;28;20197;-93
2023/10/11 01:28:09;;;;;;;23.08;20.77;;;15.80;84.10;;;;;;5128596;28;20189;-92
2023/10/11 01:30:34;;;;;;;23.73;21.52;;;15.80;84.30;;;;;;5128546;28;20180;-92
2023/10/11 01:33:00;;;;;;;27.92;21.00;;;15.80;84.00;;;;;;5127780;28;20192;-92
2023/10/11 01:35:35;;;;;;;22.42;20.50;;;15.80;84.10;;;;;;5128331;28;20243;-92
2023/10/11 01:38:04;;;;;;;24.58;20.40;;;15.80;84.10;;;;;;5127923;28;20276;-92
2023/10/11 01:40:31;;;;;;;24.95;22.65;;;15.80;84.00;;;;;;5128432;28;20166;-92
2023/10/11 01:42:57;;;;;;;23.23;21.02;;;15.90;83.70;;;;;;5125994;28;20182;-92
2023/10/11 01:45:25;;;;;;;26.58;21.17;;;15.90;83.80;;;;;;5126319;28;20193;-92
2023/10/11 01:47:51;;;;;;;24.27;21.85;;;15.90;83.80;;;;;;5126761;28;20166;-92
2023/10/11 01:50:17;;;;;;;22.88;20.50;;;15.90;83.80;;;;;;5127168;28;20196;-93
2023/10/11 01:52:47;;;;;;;22.90;20.40;;;15.80;84.20;;;;;;5125819;28;20189;-92
2023/10/11 01:55:13;;;;;;;22.50;20.45;;;15.80;84.40;;;;;;5126009;28;20198;-92
2023/10/11 01:57:41;;;;;;;22.95;20.67;;;15.80;84.50;;;;;;5123905;28;20209;-92
2023/10/11 02:00:13;;;;;;;27.70;21.60;;;15.80;84.30;;;;;;5125184;28;20186;-93
2023/10/11 02:02:47;;;;;;;23.23;20.67;;;15.80;84.60;;;;;;5126678;28;20169;-92
2023/10/11 02:05:13;;;;;;;22.95;20.40;;;15.80;84.40;;;;;;5124012;28;20201;-92
2023/10/11 02:07:39;;;;;;;22.38;19.95;;;15.80;84.70;;;;;;5124322;28;20645;-93
2023/10/11 02:10:12;;;;;;;23.50;20.65;;;15.80;84.80;;;;;;5125644;28;20177;-92
2023/10/11 02:12:45;;;;;;;34.17;30.98;;;15.80;84.70;;;;;;5124889;28;20173;-92
2023/10/11 02:15:28;;;;;;;37.17;33.75;;;15.80;84.90;;;;;;5129294;28;20206;-92
2023/10/11 02:17:57;;;;;;;38.88;35.58;;;15.80;84.90;;;;;;5123413;28;20185;-92
2023/10/11 02:20:24;;;;;;;33.85;30.88;;;15.80;85.00;;;;;;5126452;28;20223;-92
2023/10/11 02:22:51;;;;;;;36.88;33.55;;;15.80;84.90;;;;;;5125833;28;20166;-91
2023/10/11 02:25:21;;;;;;;39.50;35.58;;;15.70;85.00;;;;;;5125850;28;20257;-92
2023/10/11 02:27:49;;;;;;;39.45;35.95;;;15.80;85.00;;;;;;5125602;28;20178;-92
2023/10/11 02:30:21;;;;;;;21.83;19.73;;;15.80;84.80;;;;;;5124911;28;20303;-93
2023/10/11 02:32:48;;;;;;;31.52;19.95;;;15.80;85.00;;;;;;5127102;28;20697;-92
2023/10/11 02:35:14;;;;;;;33.75;30.75;;;15.70;85.30;;;;;;5128097;28;20216;-92
2023/10/11 02:37:40;;;;;;;36.00;30.65;;;15.70;85.70;;;;;;5125149;28;20208;-92
2023/10/11 02:40:09;;;;;;;39.63;35.83;;;15.60;86.00;;;;;;5126470;28;20170;-92
2023/10/11 02:42:36;;;;;;;23.08;20.50;;;15.60;86.00;;;;;;5127633;28;20170;-93
2023/10/11 02:45:08;;;;;;;20.60;18.48;;;15.60;86.20;;;;;;5125955;28;20221;-91
2023/10/11 02:47:35;;;;;;;32.88;30.17;;;15.60;86.50;;;;;;5126217;28;20166;-93
2023/10/11 02:50:05;;;;;;;35.15;31.88;;;15.60;86.30;;;;;;5127454;28;20170;-92
2023/10/11 02:52:35;;;;;;;22.00;19.73;;;15.50;86.60;;;;;;5127312;28;20184;-93
2023/10/11 02:55:27;;;;;;;22.20;19.52;;;15.60;86.60;;;;;;5125125;28;20685;-92
2023/10/11 02:58:05;;;;;;;21.38;19.25;;;15.50;86.70;;;;;;5127280;28;20220;-92
2023/10/11 03:00:32;;;;;;;26.90;20.20;;;15.50;86.70;;;;;;5127571;28;20219;-93
2023/10/11 03:02:58;;;;;;;25.95;20.15;;;15.60;86.70;;;;;;5127090;28;20174;-92
2023/10/11 03:05:27;;;;;;;32.70;20.85;;;15.50;86.90;;;;;;5126496;28;20190;-92
2023/10/11 03:08:16;;;;;;;24.95;20.23;;;15.50;86.90;;;;;;5121715;28;20186;-91
2023/10/11 03:10:44;;;;;;;27.27;19.83;;;15.50;87.00;;;;;;5124721;28;20173;-92
2023/10/11 03:13:23;;;;;;;25.50;20.85;;;15.50;87.00;;;;;;5128041;28;20226;-92
2023/10/11 03:15:54;;;;;;;21.25;19.10;;;15.40;87.10;;;;;;5126232;28;20197;-93
2023/10/11 03:18:25;;;;;;;22.15;19.48;;;15.30;87.50;;;;;;5127774;28;20193;-92
2023/10/11 03:20:58;;;;;;;22.02;19.83;;;15.40;87.30;;;;;;5125780;28;20166;-92
2023/10/11 03:23:27;;;;;;;23.77;20.23;;;15.50;87.30;;;;;;5125689;28;20236;-92
2023/10/11 03:25:54;;;;;;;31.08;21.23;;;15.50;87.20;;;;;;5124704;28;20189;-93
2023/10/11 03:28:26;;;;;;;24.10;21.10;;;15.50;87.10;;;;;;5124822;28;20174;-92
2023/10/11 03:30:53;;;;;;;25.83;20.42;;;15.50;87.00;;;;;;5123992;28;20221;-94
2023/10/11 03:33:19;;;;;;;22.83;20.30;;;15.50;87.20;;;;;;5124834;28;20169;-92
2023/10/11 03:35:45;;;;;;;26.60;20.77;;;15.50;87.30;;;;;;5124798;28;20703;-92
2023/10/11 03:38:17;;;;;;;24.77;21.60;;;15.50;87.20;;;;;;5126192;28;20193;-93
2023/10/11 03:40:55;;;;;;;27.08;20.02;;;15.50;87.20;;;;;;5124236;28;20207;-92
2023/10/11 03:43:23;;;;;;;22.38;20.10;;;15.40;87.70;;;;;;5126518;28;20166;-92
2023/10/11 03:45:56;;;;;;;24.92;20.52;;;15.50;87.40;;;;;;5124606;28;20283;-93
2023/10/11 03:48:27;;;;;;;23.63;21.05;;;15.50;87.40;;;;;;5126056;28;20174;-92
2023/10/11 03:50:53;;;;;;;26.60;21.95;;;15.50;87.50;;;;;;5125321;28;20166;-92
2023/10/11 03:53:19;;;;;;;24.35;21.73;;;15.50;87.50;;;;;;5125441;28;20177;-92
2023/10/11 03:55:49;;;;;;;24.88;22.30;;;15.50;87.40;;;;;;5125294;28;20265;-92
2023/10/11 03:58:29;;;;;;;27.50;22.10;;;15.60;87.30;;;;;;5123872;28;20280;-92
2023/10/11 04:01:00;;;;;;;24.65;21.60;;;15.60;87.30;;;;;;5124531;28;20165;-92
2023/10/11 04:03:26;;;;;;;26.98;22.27;;;15.60;87.30;;;;;;5123313;28;20170;-93
2023/10/11 04:05:52;;;;;;;23.48;20.98;;;15.50;87.30;;;;;;5124334;28;20197;-92
2023/10/11 04:08:24;;;;;;;23.63;21.42;;;15.50;87.50;;;;;;5125218;28;20182;-93
2023/10/11 04:10:51;;;;;;;22.95;20.45;;;15.40;87.70;;;;;;5125909;28;20250;-93
2023/10/11 04:13:24;;;;;;;23.58;21.27;;;15.40;88.00;;;;;;5124029;28;20174;-93
2023/10/11 04:15:50;;;;;;;24.27;21.90;;;15.50;87.90;;;;;;5125422;28;20719;-92
2023/10/11 04:21:14;;;;;;;26.05;21.50;;;15.40;88.20;;;;;;5125676;28;20158;-92
2023/10/11 04:23:45;;;;;;;29.00;21.38;;;15.50;87.90;;;;;;5123567;28;20177;-92
2023/10/11 04:26:33;;;;;;;23.15;20.70;;;15.40;88.00;;;;;;5123652;28;20190;-92
2023/10/11 04:29:18;;;;;;;23.50;20.20;;;15.40;88.00;;;;;;5124300;28;20171;-92
2023/10/11 04:32:40;;;;;;;24.83;22.00;;;15.40;87.90;;;;;;5125517;28;20202;-93
2023/10/11 04:34:32;;;;;;;25.05;22.10;;;15.50;87.70;;;;;;5125405;28;20219;-92
2023/10/11 04:37:06;;;;;;;29.42;21.63;;;15.40;87.90;;;;;;5127461;28;20201;-93
2023/10/11 04:39:37;;;;;;;28.50;21.73;;;15.40;88.00;;;;;;5124297;28;20240;-92
2023/10/11 04:42:03;;;;;;;25.77;21.00;;;15.40;87.90;;;;;;5125074;28;20173;-93
2023/10/11 04:44:42;;;;;;;24.98;21.17;;;15.40;87.90;;;;;;5128555;28;20182;-93
2023/10/11 04:47:08;;;;;;;24.38;21.95;;;15.40;88.00;;;;;;5127380;28;20156;-92
2023/10/11 04:49:34;;;;;;;33.72;21.88;;;15.30;88.10;;;;;;5126453;28;20174;-93
2023/10/11 04:52:00;;;;;;;24.52;21.92;;;15.30;88.10;;;;;;5127476;28;20185;-94
2023/10/11 04:54:36;;;;;;;26.88;21.45;;;15.30;88.10;;;;;;5127754;28;20194;-92
2023/10/11 04:57:07;;;;;;;24.48;21.52;;;15.30;88.10;;;;;;5123287;28;20217;-91
2023/10/11 05:01:58;;;;;;;25.90;21.33;;;15.30;88.10;;;;;;5123839;27;20237;-92
2023/10/11 05:04:34;;;;;;;31.05;20.83;;;15.30;88.10;;;;;;5136535;28;20217;-92
2023/10/11 05:07:07;;;;;;;24.17;21.55;;;15.30;88.20;;;;;;5135388;28;20169;-92
2023/10/11 05:14:30;;;;;;;26.63;20.88;;;15.40;88.00;;;;;;5117118;27;20197;-92
2023/10/11 05:17:16;;;;;;;25.23;21.88;;;15.40;88.00;;;;;;5115091;28;20196;-91
2023/10/11 05:30:09;;;;;;;35.63;32.30;;;15.50;88.20;;;;;;5122780;28;20184;-91
2023/10/11 05:32:49;;;;;;;37.03;33.17;;;15.50;88.10;;;;;;5118439;28;20166;-92
2023/10/11 05:51:27;;;;;;;26.48;23.80;;;15.40;88.50;;;;;;5119157;28;20165;-91
2023/10/11 05:53:54;;;;;;;34.80;25.60;;;15.40;88.60;;;;;;5116923;28;20176;-92
2023/10/11 05:56:23;;;;;;;37.05;33.40;;;15.50;88.40;;;;;;5118989;28;20196;-92
2023/10/11 05:58:53;;;;;;;36.15;32.75;;;15.50;88.60;;;;;;5129103;28;20206;-92
2023/10/11 06:01:21;;;;;;;36.67;33.13;;;15.40;88.70;;;;;;5129984;28;20167;-92
2023/10/11 06:03:56;;;;;;;26.42;23.00;;;15.40;88.70;;;;;;5128228;28;20230;-91
2023/10/11 06:06:38;;;;;;;26.27;23.02;;;15.50;88.60;;;;;;5138597;28;20173;-92
2023/10/11 06:09:05;;;;;;;34.80;30.33;;;15.40;88.80;;;;;;5127439;28;20693;-92
2023/10/11 06:11:36;;;;;;;35.33;31.88;;;15.40;88.90;;;;;;5122895;28;20186;-93
2023/10/11 06:14:05;;;;;;;32.28;23.42;;;15.40;88.80;;;;;;5120085;28;20166;-92
2023/10/11 06:16:38;;;;;;;28.75;23.13;;;15.50;89.00;;;;;;5124224;28;20558;-93
2023/10/11 06:19:16;;;;;;;30.17;23.00;;;15.50;89.00;;;;;;5123802;28;20195;-92
2023/10/11 06:22:09;;;;;;;28.45;23.13;;;15.50;89.00;;;;;;5119729;28;20187;-91
2023/10/11 06:24:38;;;;;;;26.48;23.13;;;15.60;88.80;;;;;;5121458;28;20218;-92
2023/10/11 06:29:53;;;;;;;28.60;22.77;;;15.60;88.80;;;;;;5124676;28;20158;-93
2023/10/11 06:32:23;;;;;;;29.75;23.10;;;15.70;88.90;;;;;;5124698;28;20166;-92
2023/10/11 06:34:50;;;;;;;32.50;23.48;;;15.70;89.00;;;;;;5123455;28;20568;-91
2023/10/11 06:37:24;;;;;;;29.63;24.02;;;15.70;89.10;;;;;;5126617;28;20193;-93
2023/10/11 06:44:59;;;;;;;39.33;24.63;;;15.70;89.00;;;;;;5121809;28;20190;-92
2023/10/11 06:47:26;;;;;;;27.38;24.05;;;15.70;89.00;;;;;;5120157;28;20150;-92
2023/10/11 06:49:54;;;;;;;37.92;24.77;;;15.80;88.80;;;;;;5118143;28;20657;-93
2023/10/11 06:52:30;;;;;;;37.90;23.75;;;15.80;88.70;;;;;;5119220;28;20178;-91
2023/10/11 06:57:41;;;;;;;29.83;24.30;;;15.90;88.80;;;;;;5119648;28;20409;-91
2023/10/11 07:00:20;;;;;;;32.15;23.65;;;15.90;88.90;;;;;;5126213;28;20191;-92
2023/10/11 07:02:47;;;;;;;34.05;24.00;;;16.00;88.80;;;;;;5123554;28;20169;-92
2023/10/11 07:05:20;;;;;;;32.05;23.45;;;16.00;88.80;;;;;;5128955;28;20194;-93
2023/10/11 07:07:49;;;;;;;27.75;23.40;;;16.00;89.00;;;;;;5126461;28;20200;-93
2023/10/11 07:10:28;;;;;;;33.30;24.33;;;16.00;89.10;;;;;;5127473;28;20185;-92
2023/10/11 07:13:04;;;;;;;27.52;22.35;;;16.00;88.90;;;;;;5129140;28;20190;-92
2023/10/11 07:15:43;;;;;;;30.50;23.35;;;16.00;88.90;;;;;;5124869;28;20219;-93
2023/10/11 07:18:27;;;;;;;30.45;23.25;;;16.00;88.70;;;;;;5125713;28;20214;-92
2023/10/11 07:21:09;;;;;;;27.75;22.95;;;16.10;88.70;;;;;;5126918;28;20165;-92
2023/10/11 07:23:55;;;;;;;29.98;23.52;;;16.10;88.60;;;;;;5127353;28;20158;-93
2023/10/11 07:28:54;;;;;;;29.77;23.00;;;16.10;88.90;;;;;;5129552;28;20158;-93
2023/10/11 07:31:27;;;;;;;30.58;24.77;;;16.20;88.90;;;;;;5128649;28;20224;-93
2023/10/11 07:33:55;;;;;;;28.98;23.95;;;16.20;88.90;;;;;;5126277;28;20547;-92
2023/10/11 07:36:22;;;;;;;32.38;23.65;;;16.20;88.90;;;;;;5125762;28;20600;-93
2023/10/11 07:38:54;;;;;;;33.30;23.48;;;16.20;88.90;;;;;;5126442;28;20201;-92
2023/10/11 07:41:28;;;;;;;36.78;23.23;;;16.20;88.90;;;;;;5125501;28;20189;-92
2023/10/11 07:43:55;;;;;;;27.30;22.83;;;16.20;88.80;;;;;;5128453;28;20163;-94
2023/10/11 07:46:21;;;;;;;33.40;23.98;;;16.20;88.80;;;;;;5129798;28;20170;-92
2023/10/11 07:48:47;;;;;;;35.63;22.92;;;16.20;88.70;;;;;;5128742;28;20203;-92
2023/10/11 07:51:13;;;;;;;25.92;23.00;;;16.20;88.90;;;;;;5128939;28;20170;-93
2023/10/11 07:53:41;;;;;;;31.75;23.88;;;16.20;88.60;;;;;;5126487;28;20174;-93
2023/10/11 07:56:07;;;;;;;31.70;22.98;;;16.30;88.70;;;;;;5126600;28;20217;-92
2023/10/11 07:58:33;;;;;;;31.73;22.48;;;16.20;88.80;;;;;;5126554;28;20194;-92
2023/10/11 08:01:45;;;;;;;28.73;23.27;;;16.20;88.90;;;;;;5125498;28;20211;-93
2023/10/11 08:03:52;;;;;;;27.30;24.05;;;16.30;89.00;;;;;;5124351;28;20307;-92
2023/10/11 08:06:24;;;;;;;36.30;31.83;;;16.20;88.90;;;;;;5125197;28;20169;-94
2023/10/11 08:08:59;;;;;;;40.10;33.65;;;16.30;89.10;;;;;;5125805;28;20167;-94
2023/10/11 08:11:28;;;;;;;38.20;34.33;;;16.30;89.00;;;;;;5127770;28;20166;-93
2023/10/11 08:14:00;;;;;;;37.85;23.80;;;16.30;88.80;;;;;;5126892;28;20181;-93
2023/10/11 08:16:26;;;;;;;32.97;22.00;;;16.30;88.90;;;;;;5126929;28;20167;-93
2023/10/11 08:18:52;;;;;;;35.00;31.33;;;16.40;88.90;;;;;;5124866;28;20202;-93
2023/10/11 08:21:18;;;;;;;41.63;32.55;;;16.40;88.80;;;;;;5125551;28;20185;-93
2023/10/11 08:23:44;;;;;;;41.88;33.67;;;16.50;88.80;;;;;;5125951;28;20197;-93
2023/10/11 08:26:19;;;;;;;34.60;24.45;;;16.40;88.90;;;;;;5126336;28;20190;-93
2023/10/11 08:28:48;;;;;;;36.60;24.35;;;16.50;88.90;;;;;;5127037;28;20195;-93
2023/10/11 08:33:55;;;;;;;37.53;33.67;;;16.50;88.60;;;;;;5128883;28;20260;-93
2023/10/11 08:36:21;;;;;;;35.13;27.98;;;16.60;88.70;;;;;;5128070;28;20182;-92
2023/10/11 08:38:47;;;;;;;38.28;25.55;;;16.50;88.80;;;;;;5126785;28;20202;-93
2023/10/11 08:41:15;;;;;;;34.33;24.50;;;16.50;88.60;;;;;;5125356;28;20170;-92
2023/10/11 08:43:43;;;;;;;35.80;32.08;;;16.50;88.40;;;;;;5128931;28;20656;-94
2023/10/11 08:46:12;;;;;;;36.28;32.35;;;16.60;88.60;;;;;;5127301;28;20736;-95
2023/10/11 08:48:40;;;;;;;32.00;24.02;;;16.60;88.30;;;;;;5126650;28;20157;-94
2023/10/11 08:51:12;;;;;;;37.75;24.58;;;16.60;88.40;;;;;;5127532;28;20178;-95
2023/10/11 08:53:45;;;;;;;37.25;32.05;;;16.60;88.40;;;;;;5127817;28;20166;-94
2023/10/11 08:56:14;;;;;;;37.47;32.42;;;16.60;88.50;;;;;;5125450;28;20205;-93
2023/10/11 08:58:41;;;;;;;40.05;31.58;;;16.50;88.60;;;;;;5130478;28;20733;-92
2023/10/11 09:01:07;;;;;;;30.85;22.95;;;16.60;88.60;;;;;;5128529;28;20174;-93
2023/10/11 09:03:40;;;;;;;37.60;24.23;;;16.70;88.40;;;;;;5128963;28;20174;-92
2023/10/11 09:06:18;;;;;;;31.17;22.65;;;16.70;88.40;;;;;;5130492;28;20190;-93
2023/10/11 09:08:47;;;;;;;34.72;23.58;;;16.70;88.60;;;;;;5129496;28;20268;-93
2023/10/11 09:11:28;;;;;;;32.90;22.33;;;16.70;88.70;;;;;;5129000;28;20181;-92
2023/10/11 09:14:26;;;;;;;32.42;24.08;;;16.80;88.30;;;;;;5131600;28;20166;-93
2023/10/11 09:17:02;;;;;;;29.20;24.38;;;16.80;88.50;;;;;;5130740;28;20248;-92
2023/10/11 09:19:28;;;;;;;26.75;22.58;;;16.80;88.60;;;;;;5132746;28;20158;-93
2023/10/11 09:22:17;;;;;;;32.88;23.67;;;16.70;88.40;;;;;;5129314;28;20174;-93
2023/10/11 09:24:44;;;;;;;26.95;22.75;;;16.80;88.60;;;;;;5130227;28;20189;-93
2023/10/11 09:29:46;;;;;;;35.30;22.98;;;16.80;88.20;;;;;;5132247;28;20519;-93
2023/10/11 09:32:13;;;;;;;36.88;24.52;;;16.80;88.30;;;;;;5130358;28;20170;-94
2023/10/11 09:34:42;;;;;;;35.90;23.95;;;16.70;88.40;;;;;;5130151;28;20707;-94
2023/10/11 09:37:11;;;;;;;33.70;25.35;;;16.70;88.50;;;;;;5132301;28;20219;-93
2023/10/11 09:39:46;;;;;;;34.72;25.92;;;16.80;88.60;;;;;;5132298;28;20177;-93
2023/10/11 09:42:14;;;;;;;34.75;23.98;;;16.70;88.40;;;;;;5127459;28;20154;-93
2023/10/11 09:44:44;;;;;;;35.65;25.48;;;16.70;88.70;;;;;;5131661;28;20194;-93
2023/10/11 09:47:16;;;;;;;29.00;24.75;;;16.70;88.70;;;;;;5131252;28;20184;-94
2023/10/11 09:49:42;;;;;;;38.17;25.70;;;16.70;88.80;;;;;;5132918;28;20150;-93
2023/10/11 09:52:16;;;;;;;29.38;23.85;;;16.70;88.80;;;;;;5131193;28;20722;-92
2023/10/11 09:54:42;;;;;;;40.35;26.15;;;16.70;88.90;;;;;;5129335;28;20200;-93
2023/10/11 09:57:50;;;;;;;36.95;22.52;;;16.70;88.90;;;;;;5128938;28;20303;-92
2023/10/11 10:00:40;;;;;;;37.13;25.10;;;16.70;88.90;;;;;;5081287;28;20178;-92
2023/10/11 10:03:12;;;;;;;35.67;25.35;;;16.70;89.30;;;;;;5129104;28;20162;-93
2023/10/11 10:06:18;;;;;;;35.75;25.27;;;16.70;89.40;;;;;;5129657;28;20283;-93
2023/10/11 10:09:04;;;;;;;40.00;25.08;;;16.60;89.60;;;;;;5130001;28;20722;-94
2023/10/11 10:12:09;;;;;;;35.20;24.65;;;16.60;89.80;;;;;;5133775;28;20238;-93
2023/10/11 10:14:42;;;;;;;30.92;24.65;;;16.60;90.00;;;;;;5130693;28;20204;-93
2023/10/11 10:17:11;;;;;;;32.17;26.42;;;16.60;90.20;;;;;;5127988;28;20174;-93
2023/10/11 10:19:43;;;;;;;35.58;25.52;;;16.70;90.40;;;;;;5129477;28;20223;-93
2023/10/11 10:22:31;;;;;;;40.00;26.83;;;16.60;90.40;;;;;;5126562;28;20238;-93
2023/10/11 10:25:18;;;;;;;37.90;25.98;;;16.60;90.40;;;;;;5130054;28;20186;-92
2023/10/11 10:27:45;;;;;;;29.60;24.27;;;16.60;90.50;;;;;;5126888;28;20166;-93
2023/10/11 10:30:16;;;;;;;31.85;26.10;;;16.60;90.80;;;;;;5127295;28;20177;-93
2023/10/11 10:33:21;;;;;;;32.83;25.75;;;16.50;91.00;;;;;;5127857;28;20166;-93
2023/10/11 10:35:48;;;;;;;38.22;27.60;;;16.40;91.70;;;;;;5130766;28;20216;-93
2023/10/11 10:38:14;;;;;;;39.15;28.55;;;16.40;91.90;;;;;;5131883;28;20278;-92
2023/10/11 10:40:45;;;;;;;41.75;28.92;;;16.30;92.30;;;;;;5131776;28;20170;-92
2023/10/11 10:43:23;;;;;;;46.63;29.95;;;16.30;92.60;;;;;;5130798;28;20161;-93
2023/10/11 10:45:53;;;;;;;35.83;29.55;;;16.30;92.70;;;;;;5132919;28;20200;-93
2023/10/11 10:48:23;;;;;;;35.53;29.40;;;16.30;92.80;;;;;;5128767;28;20169;-93
2023/10/11 10:50:52;;;;;;;41.70;29.80;;;16.30;92.80;;;;;;5130258;28;20178;-93
2023/10/11 10:53:18;;;;;;;33.67;28.58;;;16.30;92.90;;;;;;5128989;28;20185;-92
2023/10/11 10:55:45;;;;;;;43.90;30.25;;;16.30;93.20;;;;;;5130478;28;20209;-93
2023/10/11 10:58:20;;;;;;;33.63;29.55;;;16.20;93.50;;;;;;5132291;28;20201;-93
2023/10/11 11:00:52;;;;;;;45.13;32.00;;;16.20;93.80;;;;;;5133773;28;20165;-93
2023/10/11 11:03:23;;;;;;;42.55;32.25;;;16.20;93.90;;;;;;5133422;28;20159;-93
2023/10/11 11:05:56;;;;;;;39.88;32.33;;;16.20;94.00;;;;;;5131319;28;20261;-93
2023/10/11 11:08:27;;;;;;;49.60;32.75;;;16.20;94.10;;;;;;5134276;28;20177;-93
2023/10/11 11:13:49;;;;;;;35.05;28.45;;;16.30;94.30;;;;;;5137313;28;20187;-93
2023/10/11 11:16:19;;;;;;;43.92;34.70;;;16.20;94.30;;;;;;5137873;28;20178;-93
2023/10/11 11:18:46;;;;;;;38.72;33.55;;;16.30;94.40;;;;;;5138352;28;20216;-93
2023/10/11 11:21:30;;;;;;;48.28;35.40;;;16.30;94.50;;;;;;5139432;28;20169;-93
2023/10/11 11:24:34;;;;;;;45.85;34.85;;;16.30;94.50;;;;;;5139932;28;20308;-93
2023/10/11 11:27:06;;;;;;;44.67;34.03;;;16.50;94.70;;;;;;5139854;28;20178;-93
2023/10/11 11:29:32;;;;;;;41.17;32.72;;;16.50;94.70;;;;;;5139519;28;20158;-93
2023/10/11 11:31:59;;;;;;;40.70;33.60;;;16.70;94.80;;;;;;5138661;28;20184;-92
2023/10/11 11:34:34;;;;;;;42.63;33.08;;;16.70;94.70;;;;;;5138638;28;20181;-92
2023/10/11 11:37:08;;;;;;;41.75;32.03;;;16.70;94.50;;;;;;5138405;28;20174;-93
2023/10/11 11:39:39;;;;;;;43.33;30.52;;;16.80;94.50;;;;;;5136669;28;20146;-93
2023/10/11 11:42:24;;;;;;;39.72;28.77;;;16.70;94.20;;;;;;5137197;28;20150;-92
2023/10/11 11:44:51;;;;;;;34.03;26.63;;;16.80;94.10;;;;;;5136379;28;20231;-93
2023/10/11 11:47:28;;;;;;;35.22;29.05;;;16.90;93.80;;;;;;5136134;28;20209;-93
2023/10/11 11:49:58;;;;;;;40.60;30.85;;;17.20;93.90;;;;;;5136671;28;20173;-93
2023/10/11 11:52:24;;;;;;;34.83;29.60;;;17.40;93.80;;;;;;5135397;28;20296;-93
2023/10/11 11:54:49;;;;;;;39.72;32.42;;;17.30;93.10;;;;;;5135330;28;20178;-92
2023/10/11 11:57:15;;;;;;;39.10;31.40;;;17.20;92.90;;;;;;5135337;28;20205;-92
2023/10/11 11:59:43;;;;;;;38.33;30.23;;;17.20;92.90;;;;;;5133801;28;20177;-92
2023/10/11 12:02:16;;;;;;;33.65;29.80;;;17.00;92.80;;;;;;5133934;28;20181;-93
2023/10/11 12:04:44;;;;;;;38.85;31.33;;;17.00;93.00;;;;;;5130747;28;20196;-93
2023/10/11 12:07:10;;;;;;;35.38;29.15;;;17.00;93.10;;;;;;5133438;28;20181;-92
2023/10/11 12:09:37;;;;;;;39.20;31.05;;;17.00;93.10;;;;;;5132113;28;20174;-93
2023/10/11 12:12:05;;;;;;;35.15;29.58;;;17.10;93.10;;;;;;5131755;28;20181;-93
2023/10/11 12:14:37;;;;;;;34.63;29.50;;;17.20;92.70;;;;;;5130743;28;20189;-93
2023/10/11 12:17:09;;;;;;;32.75;28.55;;;17.30;92.60;;;;;;5128466;28;20260;-93
2023/10/11 12:19:40;;;;;;;33.17;28.63;;;17.40;92.50;;;;;;5131820;28;20166;-93
2023/10/11 12:22:07;;;;;;;31.23;27.63;;;17.50;92.00;;;;;;5131471;28;20173;-92
2023/10/11 12:24:33;;;;;;;33.10;29.60;;;17.70;91.60;;;;;;5130473;28;20217;-93
2023/10/11 12:26:59;;;;;;;32.65;29.27;;;17.60;91.10;;;;;;5132607;28;20200;-93
2023/10/11 12:29:26;;;;;;;33.03;27.23;;;17.80;91.10;;;;;;5133836;28;20166;-93
2023/10/11 12:31:53;;;;;;;32.03;28.65;;;17.90;90.70;;;;;;5136719;28;20191;-92
2023/10/11 12:34:24;;;;;;;31.13;26.98;;;18.10;90.50;;;;;;5138194;28;20200;-94
2023/10/11 12:36:53;;;;;;;28.23;25.50;;;18.20;90.10;;;;;;5139061;28;20180;-93
2023/10/11 12:39:24;;;;;;;29.38;26.27;;;18.10;89.30;;;;;;5137162;28;20199;-92
2023/10/11 12:41:51;;;;;;;31.95;27.02;;;17.90;89.20;;;;;;5133761;28;20170;-93
2023/10/11 12:44:20;;;;;;;29.23;26.42;;;17.90;89.70;;;;;;5134562;28;20206;-93
2023/10/11 12:46:49;;;;;;;29.00;26.10;;;18.00;89.60;;;;;;5133397;28;20178;-92
2023/10/11 12:49:15;;;;;;;30.83;27.17;;;17.90;89.10;;;;;;5137983;28;20173;-93
2023/10/11 12:51:47;;;;;;;27.75;24.77;;;18.00;89.50;;;;;;5132756;28;20158;-94
2023/10/11 12:54:14;;;;;;;31.80;23.63;;;18.00;89.10;;;;;;5135633;28;20262;-92
2023/10/11 12:56:42;;;;;;;28.08;24.92;;;17.90;88.50;;;;;;5136344;28;20190;-93
2023/10/11 12:59:14;;;;;;;26.02;23.73;;;17.90;88.70;;;;;;5133824;28;20194;-93
2023/10/11 13:01:42;;;;;;;27.65;24.45;;;17.90;89.10;;;;;;5136212;28;20268;-93
2023/10/11 13:04:10;;;;;;;26.48;23.60;;;17.80;88.90;;;;;;5133454;28;20567;-93
2023/10/11 13:06:40;;;;;;;32.38;29.20;;;17.80;88.80;;;;;;5133489;28;20191;-93
2023/10/11 13:09:16;;;;;;;35.63;32.53;;;17.70;88.90;;;;;;5134474;28;20154;-93
2023/10/11 13:11:44;;;;;;;38.13;34.67;;;17.70;88.50;;;;;;5133074;28;20169;-92
2023/10/11 13:14:20;;;;;;;25.85;22.75;;;17.70;88.60;;;;;;5134752;28;20189;-93
2023/10/11 13:16:58;;;;;;;25.52;22.90;;;17.70;88.60;;;;;;5134715;28;20177;-93
2023/10/11 13:19:24;;;;;;;33.08;29.65;;;17.60;88.90;;;;;;5133409;28;20165;-93
2023/10/11 13:21:54;;;;;;;34.63;31.25;;;17.60;89.00;;;;;;5130893;28;20170;-93
2023/10/11 13:24:24;;;;;;;37.83;34.40;;;17.50;89.20;;;;;;5132579;28;20286;-93
2023/10/11 13:26:51;;;;;;;37.15;33.83;;;17.50;89.40;;;;;;5133821;28;20163;-92
2023/10/11 13:29:18;;;;;;;34.90;31.40;;;17.70;89.60;;;;;;5134619;28;20170;-93
2023/10/11 13:31:53;;;;;;;36.38;32.97;;;17.70;89.10;;;;;;5132938;28;20182;-92
2023/10/11 13:34:19;;;;;;;37.08;33.63;;;17.70;88.90;;;;;;5130637;28;20197;-93
2023/10/11 13:36:45;;;;;;;32.53;23.95;;;17.70;89.00;;;;;;5129154;28;20235;-93
2023/10/11 13:39:26;;;;;;;32.05;23.13;;;17.80;89.00;;;;;;5130331;28;20210;-93
2023/10/11 13:42:03;;;;;;;25.25;22.00;;;17.80;88.90;;;;;;5132184;28;20169;-93
2023/10/11 13:44:31;;;;;;;35.53;31.50;;;17.90;88.70;;;;;;5133508;28;20196;-92
2023/10/11 13:46:58;;;;;;;35.42;31.92;;;18.00;88.70;;;;;;5134737;28;20150;-92